Date,TemperatureHighF,TemperatureAvgF,TemperatureLowF,DewpointHighF,DewpointAvgF,DewpointLowF,HumidityHigh,HumidityAvg,HumidityLow,PressureMaxIn,PressureMinIn,WindSpeedMaxMPH,WindSpeedAvgMPH,GustSpeedMaxMPH,PrecipitationSumIn
2013-3-1,40,37,34,34,32,28,93,82,72,30.00,29.95,8,1,8,0.03
2013-3-2,37,34,31,34,31,26,100,88,75,30.07,29.94,7,1,9,0.17
2013-3-3,40,32,25,27,23,19,91,70,47,30.10,30.04,11,1,11,0.01
2013-3-4,55,38,21,35,26,18,91,64,33,30.19,29.97,7,1,7,0.00
2013-3-5,59,51,37,55,44,30,95,78,47,30.00,29.59,22,5,23,0.72
2013-3-6,37,34,31,32,28,24,91,80,70,30.26,29.85,15,2,15,0.02
2013-3-7,45,36,30,34,30,26,88,78,60,30.33,30.22,12,1,12,0.00
2013-3-8,57,42,29,33,28,25,92,61,31,30.38,30.24,11,1,12,0.01
2013-3-9,60,48,32,38,33,27,85,59,39,30.29,30.11,16,2,19,0.00
2013-3-10,72,63,57,42,35,32,48,36,25,30.11,29.90,29,8,30,0.00
2013-3-11,65,58,45,54,50,42,96,78,48,29.93,29.68,28,7,31,1.04
2013-3-12,56,45,38,44,35,31,95,70,44,30.09,29.86,9,1,10,0.00
2013-3-13,49,39,32,34,27,20,92,65,41,30.33,30.08,15,2,15,0.00
2013-3-14,51,38,25,35,22,18,82,55,32,30.40,30.22,12,1,12,0.00
2013-3-15,72,53,31,47,39,29,94,65,39,30.27,29.89,19,3,19,0.00
2013-3-16,77,67,59,52,47,43,58,50,38,29.89,29.73,24,5,24,0.00
2013-3-17,73,65,58,55,50,46,68,59,48,29.90,29.79,20,4,20,0.00
2013-3-18,65,59,52,56,53,50,96,80,62,29.85,29.67,23,4,25,0.84
2013-3-19,63,50,38,52,34,17,96,58,22,30.10,29.81,15,2,15,0.03
2013-3-20,58,45,34,33,24,10,76,45,21,30.12,29.87,13,2,18,0.00
2013-3-21,43,31,24,28,17,12,77,56,34,30.02,29.95,10,1,13,0.00
2013-3-22,45,37,29,34,24,16,72,58,47,30.07,29.98,7,1,7,0.00
2013-3-23,56,46,38,47,40,31,93,81,63,30.01,29.71,12,1,14,0.08
2013-3-24,62,51,42,55,47,32,97,88,65,29.79,29.36,25,4,27,0.89
2013-3-25,42,36,32,34,27,25,80,69,60,30.07,29.63,19,5,19,0.00
2013-3-26,42,35,32,32,29,27,95,78,55,30.31,30.05,10,2,11,0.00
2013-3-27,53,40,27,31,27,24,93,63,35,30.36,30.24,11,1,12,0.01
2013-3-28,60,43,26,34,27,23,92,58,31,30.35,30.22,12,1,14,0.00
2013-3-29,48,40,31,42,33,23,93,76,48,30.35,30.20,11,1,13,0.01
2013-3-30,65,52,42,52,46,41,96,82,53,30.21,29.95,11,1,11,0.29
2013-3-31,64,58,53,58,55,52,97,91,71,29.95,29.80,14,2,16,0.44